ブエノスアイレス/エセイサ の空港の天気 - METARとTAF

エセイサ国際空港 ( SAEZ / EZE ) - アルゼンチン ブエノスアイレス州、Ezeiza
飛行場実況気象(Metar)
観測時間06/26 08:00 ART (06/26 11:00 UTC)
風向・風速北北東 4m/s
視程10km以上
天気現象
なし
気温20℃
湿度68%
気圧1013hPa
METARSAEZ 261100Z 02008KT CAVOK 20/14 Q1013
過去の天気等 Google飛行場航空写真 Wunderground天気予報

過去48時間のMETAR

飛行場予報(TAF)
発表時間: 6/26 08:00 ART (6/26 11:00 UTC)
予報対象時間: 26日9時 ART ~ 27日9時 ART
風向・風速北北東 5m/s
視程10km以上
なし
26日12時 ART ~ 26日15時 ART に徐々に
視程10km以上
全天の4割程度の雲 雲底高度 610m
全天の8割程度の雲 雲底高度 3,050m
26日21時 ART ~ 26日24時 ART に徐々に
風向・風速北 8m/s
視程10km以上
全天の8割程度の雲 雲底高度 910m
全天を覆う雲 雲底高度 2,130m
27日0時 ART ~ 27日9時 ART に 確率 30% で一時的に
風向・風速西北西 8m/s
視程7,000m
天気現象雨霧雨
全天の8割程度の雲 雲底高度 300m
全天を覆う雲 雲底高度 1,520m
TAF SAEZ 261100Z 2612/2712 02010KT CAVOK TX23/2618Z TN18/2709Z
BECMG 2615/2618 9999 SCT020 BKN100
BECMG 2700/2703 36015KT 9999 BKN030 OVC070
PROB30 TEMPO 2703/2712 30015KT 7000 RADZ BKN010 OVC050